sensor_id;sensor_type;location;lat;lon;timestamp;P1;durP1;ratioP1;P2;durP2;ratioP2
28551;SDS011;15752;49.560;8.708;2023-04-08T00:01:11;2.30;;;2.10;;
28551;SDS011;15752;49.560;8.708;2023-04-08T00:03:42;2.73;;;2.27;;
28551;SDS011;15752;49.560;8.708;2023-04-08T00:06:13;3.20;;;2.33;;
28551;SDS011;15752;49.560;8.708;2023-04-08T00:08:41;2.47;;;2.27;;
28551;SDS011;15752;49.560;8.708;2023-04-08T00:11:09;3.10;;;2.00;;
28551;SDS011;15752;49.560;8.708;2023-04-08T00:13:38;2.23;;;1.90;;
28551;SDS011;15752;49.560;8.708;2023-04-08T00:16:06;2.70;;;1.93;;
28551;SDS011;15752;49.560;8.708;2023-04-08T00:18:34;2.30;;;2.00;;
28551;SDS011;15752;49.560;8.708;2023-04-08T00:21:03;2.30;;;1.87;;
28551;SDS011;15752;49.560;8.708;2023-04-08T00:23:33;2.50;;;2.00;;
28551;SDS011;15752;49.560;8.708;2023-04-08T00:26:01;2.60;;;2.20;;
28551;SDS011;15752;49.560;8.708;2023-04-08T00:28:30;1.90;;;1.60;;
28551;SDS011;15752;49.560;8.708;2023-04-08T00:30:58;2.57;;;2.10;;
28551;SDS011;15752;49.560;8.708;2023-04-08T00:33:29;3.43;;;2.23;;
28551;SDS011;15752;49.560;8.708;2023-04-08T00:35:57;2.13;;;1.93;;
28551;SDS011;15752;49.560;8.708;2023-04-08T00:38:28;2.53;;;2.30;;
28551;SDS011;15752;49.560;8.708;2023-04-08T00:40:57;2.63;;;2.13;;
28551;SDS011;15752;49.560;8.708;2023-04-08T00:43:26;2.83;;;2.53;;
28551;SDS011;15752;49.560;8.708;2023-04-08T00:45:54;2.50;;;2.23;;
28551;SDS011;15752;49.560;8.708;2023-04-08T00:48:23;3.30;;;2.10;;
28551;SDS011;15752;49.560;8.708;2023-04-08T00:50:51;2.50;;;2.00;;
28551;SDS011;15752;49.560;8.708;2023-04-08T00:53:20;2.43;;;2.17;;
28551;SDS011;15752;49.560;8.708;2023-04-08T00:55:51;2.30;;;2.10;;
28551;SDS011;15752;49.560;8.708;2023-04-08T00:58:20;2.53;;;2.03;;
28551;SDS011;15752;49.560;8.708;2023-04-08T01:00:51;2.23;;;1.83;;
28551;SDS011;15752;49.560;8.708;2023-04-08T01:03:26;2.50;;;2.20;;
28551;SDS011;15752;49.560;8.708;2023-04-08T01:06:04;2.73;;;2.20;;
28551;SDS011;15752;49.560;8.708;2023-04-08T01:08:39;2.50;;;2.30;;
28551;SDS011;15752;49.560;8.708;2023-04-08T01:11:09;3.53;;;2.50;;
28551;SDS011;15752;49.560;8.708;2023-04-08T01:13:41;2.20;;;2.00;;
28551;SDS011;15752;49.560;8.708;2023-04-08T01:16:13;3.83;;;1.97;;
28551;SDS011;15752;49.560;8.708;2023-04-08T01:18:43;2.80;;;2.27;;
28551;SDS011;15752;49.560;8.708;2023-04-08T01:21:13;3.57;;;2.03;;
28551;SDS011;15752;49.560;8.708;2023-04-08T01:23:45;2.70;;;2.20;;
28551;SDS011;15752;49.560;8.708;2023-04-08T01:26:25;3.93;;;2.30;;
28551;SDS011;15752;49.560;8.708;2023-04-08T01:28:54;2.83;;;2.43;;
28551;SDS011;15752;49.560;8.708;2023-04-08T01:31:26;3.33;;;2.20;;
28551;SDS011;15752;49.560;8.708;2023-04-08T01:33:56;2.57;;;2.37;;
28551;SDS011;15752;49.560;8.708;2023-04-08T01:36:27;3.53;;;2.40;;
28551;SDS011;15752;49.560;8.708;2023-04-08T01:38:58;3.00;;;2.70;;
28551;SDS011;15752;49.560;8.708;2023-04-08T01:41:30;2.90;;;2.47;;
28551;SDS011;15752;49.560;8.708;2023-04-08T01:44:01;2.93;;;2.57;;
28551;SDS011;15752;49.560;8.708;2023-04-08T01:46:30;4.73;;;2.77;;
28551;SDS011;15752;49.560;8.708;2023-04-08T01:49:01;3.40;;;2.77;;
28551;SDS011;15752;49.560;8.708;2023-04-08T01:51:30;3.07;;;2.20;;
28551;SDS011;15752;49.560;8.708;2023-04-08T01:53:59;2.63;;;2.43;;
28551;SDS011;15752;49.560;8.708;2023-04-08T01:56:28;2.60;;;2.20;;
28551;SDS011;15752;49.560;8.708;2023-04-08T01:58:59;4.27;;;2.47;;
28551;SDS011;15752;49.560;8.708;2023-04-08T02:01:29;2.50;;;2.30;;
28551;SDS011;15752;49.560;8.708;2023-04-08T02:03:58;3.87;;;3.23;;
28551;SDS011;15752;49.560;8.708;2023-04-08T02:06:29;3.87;;;2.80;;
28551;SDS011;15752;49.560;8.708;2023-04-08T02:08:58;3.27;;;2.73;;
28551;SDS011;15752;49.560;8.708;2023-04-08T02:11:27;3.30;;;3.00;;
28551;SDS011;15752;49.560;8.708;2023-04-08T02:13:57;3.70;;;3.23;;
28551;SDS011;15752;49.560;8.708;2023-04-08T02:16:28;3.40;;;2.93;;
28551;SDS011;15752;49.560;8.708;2023-04-08T02:19:04;4.43;;;3.03;;
28551;SDS011;15752;49.560;8.708;2023-04-08T02:21:42;4.50;;;3.60;;
28551;SDS011;15752;49.560;8.708;2023-04-08T02:24:15;3.60;;;3.07;;
28551;SDS011;15752;49.560;8.708;2023-04-08T02:26:45;5.47;;;3.30;;
28551;SDS011;15752;49.560;8.708;2023-04-08T02:29:18;3.87;;;3.20;;
28551;SDS011;15752;49.560;8.708;2023-04-08T02:31:50;4.20;;;3.30;;
28551;SDS011;15752;49.560;8.708;2023-04-08T02:34:19;3.50;;;2.90;;
28551;SDS011;15752;49.560;8.708;2023-04-08T02:36:49;3.27;;;2.97;;
28551;SDS011;15752;49.560;8.708;2023-04-08T02:39:18;3.77;;;3.23;;
28551;SDS011;15752;49.560;8.708;2023-04-08T02:41:48;4.87;;;3.33;;
28551;SDS011;15752;49.560;8.708;2023-04-08T02:44:21;4.47;;;3.43;;
28551;SDS011;15752;49.560;8.708;2023-04-08T02:46:49;3.20;;;2.90;;
28551;SDS011;15752;49.560;8.708;2023-04-08T02:49:18;5.10;;;2.73;;
28551;SDS011;15752;49.560;8.708;2023-04-08T02:51:46;3.17;;;2.87;;
28551;SDS011;15752;49.560;8.708;2023-04-08T02:54:15;3.50;;;3.20;;
28551;SDS011;15752;49.560;8.708;2023-04-08T02:56:43;3.93;;;3.53;;
28551;SDS011;15752;49.560;8.708;2023-04-08T02:59:11;4.07;;;3.20;;
28551;SDS011;15752;49.560;8.708;2023-04-08T03:01:41;3.50;;;3.13;;
28551;SDS011;15752;49.560;8.708;2023-04-08T03:04:10;4.33;;;2.90;;
28551;SDS011;15752;49.560;8.708;2023-04-08T03:06:38;2.87;;;2.67;;
28551;SDS011;15752;49.560;8.708;2023-04-08T03:09:07;3.40;;;3.10;;
28551;SDS011;15752;49.560;8.708;2023-04-08T03:11:35;3.30;;;2.80;;
28551;SDS011;15752;49.560;8.708;2023-04-08T03:14:04;3.23;;;2.93;;
28551;SDS011;15752;49.560;8.708;2023-04-08T03:16:32;3.73;;;3.23;;
28551;SDS011;15752;49.560;8.708;2023-04-08T03:19:02;4.03;;;3.10;;
28551;SDS011;15752;49.560;8.708;2023-04-08T03:21:30;3.67;;;3.10;;
28551;SDS011;15752;49.560;8.708;2023-04-08T03:23:59;3.73;;;2.90;;
28551;SDS011;15752;49.560;8.708;2023-04-08T03:26:27;4.00;;;2.90;;
28551;SDS011;15752;49.560;8.708;2023-04-08T03:28:55;4.67;;;3.20;;
28551;SDS011;15752;49.560;8.708;2023-04-08T03:31:24;6.13;;;4.00;;
28551;SDS011;15752;49.560;8.708;2023-04-08T03:33:53;7.37;;;4.90;;
28551;SDS011;15752;49.560;8.708;2023-04-08T03:36:23;6.50;;;4.57;;
28551;SDS011;15752;49.560;8.708;2023-04-08T03:38:52;6.07;;;4.90;;
28551;SDS011;15752;49.560;8.708;2023-04-08T03:41:20;5.73;;;4.13;;
28551;SDS011;15752;49.560;8.708;2023-04-08T03:43:48;6.90;;;3.93;;
28551;SDS011;15752;49.560;8.708;2023-04-08T03:46:17;5.80;;;4.13;;
28551;SDS011;15752;49.560;8.708;2023-04-08T03:48:45;5.33;;;4.07;;
28551;SDS011;15752;49.560;8.708;2023-04-08T03:51:14;5.27;;;3.93;;
28551;SDS011;15752;49.560;8.708;2023-04-08T03:53:44;3.77;;;3.37;;
28551;SDS011;15752;49.560;8.708;2023-04-08T03:56:13;5.47;;;3.90;;
28551;SDS011;15752;49.560;8.708;2023-04-08T03:58:41;4.43;;;3.50;;
28551;SDS011;15752;49.560;8.708;2023-04-08T04:01:10;3.60;;;3.30;;
28551;SDS011;15752;49.560;8.708;2023-04-08T04:03:38;3.20;;;2.90;;
28551;SDS011;15752;49.560;8.708;2023-04-08T04:06:07;3.33;;;3.03;;
28551;SDS011;15752;49.560;8.708;2023-04-08T04:08:36;3.60;;;3.30;;
28551;SDS011;15752;49.560;8.708;2023-04-08T04:11:05;3.83;;;3.43;;
28551;SDS011;15752;49.560;8.708;2023-04-08T04:13:34;3.30;;;3.00;;
28551;SDS011;15752;49.560;8.708;2023-04-08T04:16:02;3.17;;;2.73;;
28551;SDS011;15752;49.560;8.708;2023-04-08T04:18:31;4.60;;;3.43;;
28551;SDS011;15752;49.560;8.708;2023-04-08T04:21:00;3.77;;;3.27;;
28551;SDS011;15752;49.560;8.708;2023-04-08T04:23:32;3.50;;;3.20;;
28551;SDS011;15752;49.560;8.708;2023-04-08T04:26:01;3.30;;;3.00;;
28551;SDS011;15752;49.560;8.708;2023-04-08T04:28:36;3.83;;;2.93;;
28551;SDS011;15752;49.560;8.708;2023-04-08T04:31:04;2.73;;;2.53;;
28551;SDS011;15752;49.560;8.708;2023-04-08T04:33:33;3.10;;;2.80;;
28551;SDS011;15752;49.560;8.708;2023-04-08T04:36:01;3.23;;;2.93;;
28551;SDS011;15752;49.560;8.708;2023-04-08T04:38:30;3.50;;;3.20;;
28551;SDS011;15752;49.560;8.708;2023-04-08T04:40:58;3.10;;;2.80;;
28551;SDS011;15752;49.560;8.708;2023-04-08T04:43:28;3.17;;;2.80;;
28551;SDS011;15752;49.560;8.708;2023-04-08T04:45:56;3.30;;;2.93;;
28551;SDS011;15752;49.560;8.708;2023-04-08T04:48:25;3.10;;;2.80;;
28551;SDS011;15752;49.560;8.708;2023-04-08T04:50:53;3.83;;;3.13;;
28551;SDS011;15752;49.560;8.708;2023-04-08T04:53:22;4.70;;;2.97;;
28551;SDS011;15752;49.560;8.708;2023-04-08T04:55:51;3.83;;;2.80;;
28551;SDS011;15752;49.560;8.708;2023-04-08T04:58:19;3.20;;;2.70;;
28551;SDS011;15752;49.560;8.708;2023-04-08T05:00:49;3.20;;;2.83;;
28551;SDS011;15752;49.560;8.708;2023-04-08T05:03:17;3.67;;;3.00;;
28551;SDS011;15752;49.560;8.708;2023-04-08T05:05:49;4.63;;;3.23;;
28551;SDS011;15752;49.560;8.708;2023-04-08T05:08:18;3.00;;;2.70;;
28551;SDS011;15752;49.560;8.708;2023-04-08T05:10:48;3.40;;;2.53;;
28551;SDS011;15752;49.560;8.708;2023-04-08T05:13:16;3.07;;;2.77;;
28551;SDS011;15752;49.560;8.708;2023-04-08T05:15:47;4.00;;;2.60;;
28551;SDS011;15752;49.560;8.708;2023-04-08T05:18:17;3.37;;;2.80;;
28551;SDS011;15752;49.560;8.708;2023-04-08T05:20:46;3.27;;;2.97;;
28551;SDS011;15752;49.560;8.708;2023-04-08T05:23:14;3.97;;;2.97;;
28551;SDS011;15752;49.560;8.708;2023-04-08T05:25:42;3.47;;;2.90;;
28551;SDS011;15752;49.560;8.708;2023-04-08T05:28:11;3.30;;;3.00;;
28551;SDS011;15752;49.560;8.708;2023-04-08T05:30:39;3.03;;;2.80;;
28551;SDS011;15752;49.560;8.708;2023-04-08T05:33:09;3.87;;;3.47;;
28551;SDS011;15752;49.560;8.708;2023-04-08T05:35:38;3.60;;;3.20;;
28551;SDS011;15752;49.560;8.708;2023-04-08T05:38:06;3.43;;;3.13;;
28551;SDS011;15752;49.560;8.708;2023-04-08T05:40:35;4.63;;;3.30;;
28551;SDS011;15752;49.560;8.708;2023-04-08T05:43:03;3.83;;;3.43;;
28551;SDS011;15752;49.560;8.708;2023-04-08T05:45:31;5.10;;;3.47;;
28551;SDS011;15752;49.560;8.708;2023-04-08T05:48:00;4.90;;;3.97;;
28551;SDS011;15752;49.560;8.708;2023-04-08T05:50:30;4.77;;;3.93;;
28551;SDS011;15752;49.560;8.708;2023-04-08T05:52:58;4.43;;;3.60;;
28551;SDS011;15752;49.560;8.708;2023-04-08T05:55:26;6.27;;;5.40;;
28551;SDS011;15752;49.560;8.708;2023-04-08T05:57:55;10.00;;;7.60;;
28551;SDS011;15752;49.560;8.708;2023-04-08T06:00:23;7.53;;;6.83;;
28551;SDS011;15752;49.560;8.708;2023-04-08T06:02:52;9.07;;;8.27;;
28551;SDS011;15752;49.560;8.708;2023-04-08T06:05:21;8.10;;;7.30;;
28551;SDS011;15752;49.560;8.708;2023-04-08T06:07:50;7.90;;;6.77;;
28551;SDS011;15752;49.560;8.708;2023-04-08T06:10:19;7.63;;;6.43;;
28551;SDS011;15752;49.560;8.708;2023-04-08T06:12:47;7.37;;;6.60;;
28551;SDS011;15752;49.560;8.708;2023-04-08T06:15:16;7.47;;;5.90;;
28551;SDS011;15752;49.560;8.708;2023-04-08T06:17:44;6.90;;;6.10;;
28551;SDS011;15752;49.560;8.708;2023-04-08T06:20:13;6.43;;;5.67;;
28551;SDS011;15752;49.560;8.708;2023-04-08T06:22:41;6.40;;;5.80;;
28551;SDS011;15752;49.560;8.708;2023-04-08T06:25:11;9.50;;;6.53;;
28551;SDS011;15752;49.560;8.708;2023-04-08T06:27:39;7.70;;;6.60;;
28551;SDS011;15752;49.560;8.708;2023-04-08T06:30:09;8.67;;;7.77;;
28551;SDS011;15752;49.560;8.708;2023-04-08T06:32:38;6.07;;;5.47;;
28551;SDS011;15752;49.560;8.708;2023-04-08T06:35:06;8.27;;;7.43;;
28551;SDS011;15752;49.560;8.708;2023-04-08T06:37:35;7.57;;;6.73;;
28551;SDS011;15752;49.560;8.708;2023-04-08T06:40:06;7.30;;;6.60;;
28551;SDS011;15752;49.560;8.708;2023-04-08T06:42:36;8.87;;;7.20;;
28551;SDS011;15752;49.560;8.708;2023-04-08T06:45:17;7.50;;;6.67;;
28551;SDS011;15752;49.560;8.708;2023-04-08T06:47:46;7.50;;;6.17;;
28551;SDS011;15752;49.560;8.708;2023-04-08T06:50:14;7.03;;;6.33;;
28551;SDS011;15752;49.560;8.708;2023-04-08T06:52:43;8.10;;;7.30;;
28551;SDS011;15752;49.560;8.708;2023-04-08T06:55:11;8.60;;;7.80;;
28551;SDS011;15752;49.560;8.708;2023-04-08T06:57:41;8.03;;;7.23;;
28551;SDS011;15752;49.560;8.708;2023-04-08T07:00:10;8.53;;;7.50;;
28551;SDS011;15752;49.560;8.708;2023-04-08T07:02:39;9.30;;;8.40;;
28551;SDS011;15752;49.560;8.708;2023-04-08T07:05:08;8.47;;;7.70;;
28551;SDS011;15752;49.560;8.708;2023-04-08T07:07:36;8.13;;;7.33;;
28551;SDS011;15752;49.560;8.708;2023-04-08T07:10:05;8.23;;;7.27;;
28551;SDS011;15752;49.560;8.708;2023-04-08T07:12:41;9.57;;;8.67;;
28551;SDS011;15752;49.560;8.708;2023-04-08T07:15:10;8.13;;;7.33;;
28551;SDS011;15752;49.560;8.708;2023-04-08T07:17:40;8.40;;;7.43;;
28551;SDS011;15752;49.560;8.708;2023-04-08T07:20:09;8.33;;;7.10;;
28551;SDS011;15752;49.560;8.708;2023-04-08T07:22:39;8.40;;;6.70;;
28551;SDS011;15752;49.560;8.708;2023-04-08T07:25:07;8.43;;;7.57;;
28551;SDS011;15752;49.560;8.708;2023-04-08T07:27:36;8.70;;;7.80;;
28551;SDS011;15752;49.560;8.708;2023-04-08T07:30:07;8.37;;;7.20;;
28551;SDS011;15752;49.560;8.708;2023-04-08T07:32:36;7.60;;;6.90;;
28551;SDS011;15752;49.560;8.708;2023-04-08T07:35:04;8.87;;;7.97;;
28551;SDS011;15752;49.560;8.708;2023-04-08T07:37:33;8.43;;;7.20;;
28551;SDS011;15752;49.560;8.708;2023-04-08T07:40:02;7.23;;;6.53;;
28551;SDS011;15752;49.560;8.708;2023-04-08T07:42:32;9.43;;;6.60;;
28551;SDS011;15752;49.560;8.708;2023-04-08T07:45:00;8.20;;;7.40;;
28551;SDS011;15752;49.560;8.708;2023-04-08T07:47:30;7.47;;;6.77;;
28551;SDS011;15752;49.560;8.708;2023-04-08T07:49:59;8.20;;;7.40;;
28551;SDS011;15752;49.560;8.708;2023-04-08T07:52:28;8.37;;;7.57;;
28551;SDS011;15752;49.560;8.708;2023-04-08T07:54:57;8.07;;;7.20;;
28551;SDS011;15752;49.560;8.708;2023-04-08T07:57:25;7.63;;;6.77;;
28551;SDS011;15752;49.560;8.708;2023-04-08T07:59:54;8.67;;;7.60;;
28551;SDS011;15752;49.560;8.708;2023-04-08T08:02:23;11.37;;;9.30;;
28551;SDS011;15752;49.560;8.708;2023-04-08T08:04:53;10.17;;;8.97;;
28551;SDS011;15752;49.560;8.708;2023-04-08T08:07:21;10.37;;;9.27;;
28551;SDS011;15752;49.560;8.708;2023-04-08T08:09:50;10.83;;;9.07;;
28551;SDS011;15752;49.560;8.708;2023-04-08T08:12:18;10.00;;;9.00;;
28551;SDS011;15752;49.560;8.708;2023-04-08T08:14:47;8.83;;;7.93;;
28551;SDS011;15752;49.560;8.708;2023-04-08T08:17:16;7.80;;;7.00;;
28551;SDS011;15752;49.560;8.708;2023-04-08T08:19:44;7.87;;;7.00;;
28551;SDS011;15752;49.560;8.708;2023-04-08T08:22:14;8.87;;;7.60;;
28551;SDS011;15752;49.560;8.708;2023-04-08T08:24:42;8.77;;;7.00;;
28551;SDS011;15752;49.560;8.708;2023-04-08T08:27:11;7.37;;;6.63;;
28551;SDS011;15752;49.560;8.708;2023-04-08T08:29:39;8.27;;;7.43;;
28551;SDS011;15752;49.560;8.708;2023-04-08T08:32:08;9.13;;;7.33;;
28551;SDS011;15752;49.560;8.708;2023-04-08T08:34:36;7.50;;;6.50;;
28551;SDS011;15752;49.560;8.708;2023-04-08T08:37:05;8.17;;;6.87;;
28551;SDS011;15752;49.560;8.708;2023-04-08T08:39:34;8.03;;;6.90;;
28551;SDS011;15752;49.560;8.708;2023-04-08T08:42:03;11.83;;;8.00;;
28551;SDS011;15752;49.560;8.708;2023-04-08T08:44:31;7.80;;;6.50;;
28551;SDS011;15752;49.560;8.708;2023-04-08T08:46:59;8.63;;;6.30;;
28551;SDS011;15752;49.560;8.708;2023-04-08T08:49:28;7.20;;;6.43;;
28551;SDS011;15752;49.560;8.708;2023-04-08T08:51:56;7.43;;;6.37;;
28551;SDS011;15752;49.560;8.708;2023-04-08T08:54:26;9.13;;;7.37;;
28551;SDS011;15752;49.560;8.708;2023-04-08T08:56:56;8.07;;;7.03;;
28551;SDS011;15752;49.560;8.708;2023-04-08T08:59:24;7.77;;;6.97;;
28551;SDS011;15752;49.560;8.708;2023-04-08T09:01:53;7.63;;;6.67;;
28551;SDS011;15752;49.560;8.708;2023-04-08T09:04:21;7.87;;;6.37;;
28551;SDS011;15752;49.560;8.708;2023-04-08T09:07:03;6.93;;;6.23;;
28551;SDS011;15752;49.560;8.708;2023-04-08T09:09:46;7.20;;;5.70;;
28551;SDS011;15752;49.560;8.708;2023-04-08T09:12:17;8.13;;;6.43;;
28551;SDS011;15752;49.560;8.708;2023-04-08T09:14:46;7.43;;;5.93;;
28551;SDS011;15752;49.560;8.708;2023-04-08T09:17:15;7.57;;;6.30;;
28551;SDS011;15752;49.560;8.708;2023-04-08T09:20:06;7.23;;;6.53;;
28551;SDS011;15752;49.560;8.708;2023-04-08T09:22:56;8.77;;;6.77;;
28551;SDS011;15752;49.560;8.708;2023-04-08T09:25:26;9.30;;;6.77;;
28551;SDS011;15752;49.560;8.708;2023-04-08T09:30:33;7.33;;;5.57;;
28551;SDS011;15752;49.560;8.708;2023-04-08T09:33:02;8.27;;;6.60;;
28551;SDS011;15752;49.560;8.708;2023-04-08T09:35:32;7.60;;;6.00;;
28551;SDS011;15752;49.560;8.708;2023-04-08T09:38:01;7.73;;;6.07;;
28551;SDS011;15752;49.560;8.708;2023-04-08T09:40:30;7.53;;;5.87;;
28551;SDS011;15752;49.560;8.708;2023-04-08T09:43:02;6.97;;;6.10;;
28551;SDS011;15752;49.560;8.708;2023-04-08T09:45:33;6.83;;;5.63;;
28551;SDS011;15752;49.560;8.708;2023-04-08T09:48:05;6.03;;;4.97;;
28551;SDS011;15752;49.560;8.708;2023-04-08T09:50:42;6.23;;;5.53;;
28551;SDS011;15752;49.560;8.708;2023-04-08T09:53:18;7.00;;;5.73;;
28551;SDS011;15752;49.560;8.708;2023-04-08T09:55:52;8.33;;;5.83;;
28551;SDS011;15752;49.560;8.708;2023-04-08T09:58:24;6.20;;;5.40;;
28551;SDS011;15752;49.560;8.708;2023-04-08T10:00:58;7.40;;;5.63;;
28551;SDS011;15752;49.560;8.708;2023-04-08T10:03:28;6.13;;;5.47;;
28551;SDS011;15752;49.560;8.708;2023-04-08T10:06:02;7.07;;;5.40;;
28551;SDS011;15752;49.560;8.708;2023-04-08T10:08:33;7.70;;;5.10;;
28551;SDS011;15752;49.560;8.708;2023-04-08T10:11:02;6.93;;;5.30;;
28551;SDS011;15752;49.560;8.708;2023-04-08T10:13:31;5.40;;;4.70;;
28551;SDS011;15752;49.560;8.708;2023-04-08T10:16:21;6.30;;;5.27;;
28551;SDS011;15752;49.560;8.708;2023-04-08T10:18:53;7.00;;;5.30;;
28551;SDS011;15752;49.560;8.708;2023-04-08T10:21:35;7.40;;;4.97;;
28551;SDS011;15752;49.560;8.708;2023-04-08T10:24:05;7.33;;;5.40;;
28551;SDS011;15752;49.560;8.708;2023-04-08T10:26:35;6.80;;;5.50;;
28551;SDS011;15752;49.560;8.708;2023-04-08T10:32:03;6.23;;;4.53;;
28551;SDS011;15752;49.560;8.708;2023-04-08T10:34:32;7.87;;;5.63;;
28551;SDS011;15752;49.560;8.708;2023-04-08T10:37:00;6.10;;;5.50;;
28551;SDS011;15752;49.560;8.708;2023-04-08T10:39:29;6.43;;;4.93;;
28551;SDS011;15752;49.560;8.708;2023-04-08T10:41:58;5.77;;;4.60;;
28551;SDS011;15752;49.560;8.708;2023-04-08T10:44:29;8.00;;;5.30;;
28551;SDS011;15752;49.560;8.708;2023-04-08T10:46:57;6.93;;;5.60;;
28551;SDS011;15752;49.560;8.708;2023-04-08T10:49:32;7.03;;;4.97;;
28551;SDS011;15752;49.560;8.708;2023-04-08T10:52:05;7.63;;;5.30;;
28551;SDS011;15752;49.560;8.708;2023-04-08T10:54:35;5.20;;;4.70;;
28551;SDS011;15752;49.560;8.708;2023-04-08T10:57:05;5.80;;;4.23;;
28551;SDS011;15752;49.560;8.708;2023-04-08T10:59:33;6.27;;;5.13;;
28551;SDS011;15752;49.560;8.708;2023-04-08T11:02:02;5.27;;;4.70;;
28551;SDS011;15752;49.560;8.708;2023-04-08T11:04:32;6.47;;;5.10;;
28551;SDS011;15752;49.560;8.708;2023-04-08T11:07:01;6.07;;;4.80;;
28551;SDS011;15752;49.560;8.708;2023-04-08T11:09:33;6.27;;;4.77;;
28551;SDS011;15752;49.560;8.708;2023-04-08T11:12:01;7.30;;;5.27;;
28551;SDS011;15752;49.560;8.708;2023-04-08T11:14:31;6.70;;;5.20;;
28551;SDS011;15752;49.560;8.708;2023-04-08T11:16:59;6.60;;;5.00;;
28551;SDS011;15752;49.560;8.708;2023-04-08T11:19:27;7.07;;;5.30;;
28551;SDS011;15752;49.560;8.708;2023-04-08T11:21:57;8.03;;;5.30;;
28551;SDS011;15752;49.560;8.708;2023-04-08T11:24:26;6.47;;;5.30;;
28551;SDS011;15752;49.560;8.708;2023-04-08T11:26:55;8.83;;;6.00;;
28551;SDS011;15752;49.560;8.708;2023-04-08T11:29:24;7.17;;;5.00;;
28551;SDS011;15752;49.560;8.708;2023-04-08T11:31:55;6.03;;;4.73;;
28551;SDS011;15752;49.560;8.708;2023-04-08T11:34:24;6.57;;;5.10;;
28551;SDS011;15752;49.560;8.708;2023-04-08T11:36:55;6.43;;;5.20;;
28551;SDS011;15752;49.560;8.708;2023-04-08T11:39:25;6.30;;;5.70;;
28551;SDS011;15752;49.560;8.708;2023-04-08T11:41:53;5.43;;;4.80;;
28551;SDS011;15752;49.560;8.708;2023-04-08T11:44:28;5.13;;;4.63;;
28551;SDS011;15752;49.560;8.708;2023-04-08T11:46:58;5.77;;;5.17;;
28551;SDS011;15752;49.560;8.708;2023-04-08T11:49:27;6.20;;;4.50;;
28551;SDS011;15752;49.560;8.708;2023-04-08T11:52:11;4.97;;;4.47;;
28551;SDS011;15752;49.560;8.708;2023-04-08T11:54:41;6.50;;;5.30;;
28551;SDS011;15752;49.560;8.708;2023-04-08T11:57:10;5.00;;;4.37;;
28551;SDS011;15752;49.560;8.708;2023-04-08T11:59:40;4.53;;;4.13;;
28551;SDS011;15752;49.560;8.708;2023-04-08T12:02:08;5.13;;;4.27;;
28551;SDS011;15752;49.560;8.708;2023-04-08T12:04:38;4.80;;;3.93;;
28551;SDS011;15752;49.560;8.708;2023-04-08T12:07:06;5.63;;;3.87;;
28551;SDS011;15752;49.560;8.708;2023-04-08T12:09:36;5.70;;;4.47;;
28551;SDS011;15752;49.560;8.708;2023-04-08T12:12:05;5.27;;;4.23;;
28551;SDS011;15752;49.560;8.708;2023-04-08T12:14:34;6.37;;;3.80;;
28551;SDS011;15752;49.560;8.708;2023-04-08T12:17:02;4.57;;;3.53;;
28551;SDS011;15752;49.560;8.708;2023-04-08T12:19:30;4.37;;;3.60;;
28551;SDS011;15752;49.560;8.708;2023-04-08T12:22:01;4.23;;;3.83;;
28551;SDS011;15752;49.560;8.708;2023-04-08T12:24:29;4.90;;;4.27;;
28551;SDS011;15752;49.560;8.708;2023-04-08T12:26:57;4.73;;;4.13;;
28551;SDS011;15752;49.560;8.708;2023-04-08T12:29:29;4.67;;;3.80;;
28551;SDS011;15752;49.560;8.708;2023-04-08T12:31:57;5.00;;;4.13;;
28551;SDS011;15752;49.560;8.708;2023-04-08T12:34:28;4.73;;;4.17;;
28551;SDS011;15752;49.560;8.708;2023-04-08T12:36:56;5.33;;;4.53;;
28551;SDS011;15752;49.560;8.708;2023-04-08T12:39:25;4.83;;;4.00;;
28551;SDS011;15752;49.560;8.708;2023-04-08T12:41:54;4.80;;;4.03;;
28551;SDS011;15752;49.560;8.708;2023-04-08T12:44:22;5.70;;;4.37;;
28551;SDS011;15752;49.560;8.708;2023-04-08T12:46:52;4.23;;;3.40;;
28551;SDS011;15752;49.560;8.708;2023-04-08T12:49:21;5.13;;;4.23;;
28551;SDS011;15752;49.560;8.708;2023-04-08T12:51:49;3.97;;;3.47;;
28551;SDS011;15752;49.560;8.708;2023-04-08T12:54:18;4.13;;;3.33;;
28551;SDS011;15752;49.560;8.708;2023-04-08T12:56:50;5.77;;;3.80;;
28551;SDS011;15752;49.560;8.708;2023-04-08T12:59:18;4.33;;;3.20;;
28551;SDS011;15752;49.560;8.708;2023-04-08T13:01:47;4.50;;;3.40;;
28551;SDS011;15752;49.560;8.708;2023-04-08T13:04:17;3.80;;;3.43;;
28551;SDS011;15752;49.560;8.708;2023-04-08T13:06:46;3.83;;;3.20;;
28551;SDS011;15752;49.560;8.708;2023-04-08T13:09:14;3.57;;;3.27;;
28551;SDS011;15752;49.560;8.708;2023-04-08T13:11:43;3.70;;;2.83;;
28551;SDS011;15752;49.560;8.708;2023-04-08T13:14:12;5.20;;;3.30;;
28551;SDS011;15752;49.560;8.708;2023-04-08T13:16:40;4.10;;;2.87;;
28551;SDS011;15752;49.560;8.708;2023-04-08T13:19:09;3.30;;;2.97;;
28551;SDS011;15752;49.560;8.708;2023-04-08T13:21:39;3.33;;;3.03;;
28551;SDS011;15752;49.560;8.708;2023-04-08T13:24:09;3.20;;;2.90;;
28551;SDS011;15752;49.560;8.708;2023-04-08T13:26:37;3.50;;;2.90;;
28551;SDS011;15752;49.560;8.708;2023-04-08T13:29:06;3.77;;;2.80;;
28551;SDS011;15752;49.560;8.708;2023-04-08T13:31:34;3.57;;;2.70;;
28551;SDS011;15752;49.560;8.708;2023-04-08T13:34:02;3.53;;;2.57;;
28551;SDS011;15752;49.560;8.708;2023-04-08T13:36:31;3.93;;;3.00;;
28551;SDS011;15752;49.560;8.708;2023-04-08T13:39:01;4.23;;;3.33;;
28551;SDS011;15752;49.560;8.708;2023-04-08T13:41:29;4.80;;;3.80;;
28551;SDS011;15752;49.560;8.708;2023-04-08T13:43:59;3.53;;;3.23;;
28551;SDS011;15752;49.560;8.708;2023-04-08T13:46:27;3.30;;;3.00;;
28551;SDS011;15752;49.560;8.708;2023-04-08T13:48:56;4.50;;;3.47;;
28551;SDS011;15752;49.560;8.708;2023-04-08T13:51:24;3.50;;;2.90;;
28551;SDS011;15752;49.560;8.708;2023-04-08T13:53:56;3.30;;;2.70;;
28551;SDS011;15752;49.560;8.708;2023-04-08T13:56:26;4.93;;;2.90;;
28551;SDS011;15752;49.560;8.708;2023-04-08T13:58:54;6.57;;;3.63;;
28551;SDS011;15752;49.560;8.708;2023-04-08T14:01:23;3.73;;;3.00;;
28551;SDS011;15752;49.560;8.708;2023-04-08T14:03:51;4.20;;;2.73;;
28551;SDS011;15752;49.560;8.708;2023-04-08T14:06:20;4.57;;;2.60;;
28551;SDS011;15752;49.560;8.708;2023-04-08T14:08:48;4.50;;;3.13;;
28551;SDS011;15752;49.560;8.708;2023-04-08T14:11:17;4.20;;;3.40;;
28551;SDS011;15752;49.560;8.708;2023-04-08T14:13:48;4.80;;;3.30;;
28551;SDS011;15752;49.560;8.708;2023-04-08T14:16:16;4.07;;;3.63;;
28551;SDS011;15752;49.560;8.708;2023-04-08T14:18:45;3.63;;;3.20;;
28551;SDS011;15752;49.560;8.708;2023-04-08T14:21:13;3.53;;;2.87;;
28551;SDS011;15752;49.560;8.708;2023-04-08T14:23:43;3.60;;;2.90;;
28551;SDS011;15752;49.560;8.708;2023-04-08T14:26:12;3.60;;;3.07;;
28551;SDS011;15752;49.560;8.708;2023-04-08T14:28:40;5.07;;;3.10;;
28551;SDS011;15752;49.560;8.708;2023-04-08T14:31:10;4.17;;;3.03;;
28551;SDS011;15752;49.560;8.708;2023-04-08T14:33:39;3.63;;;2.80;;
28551;SDS011;15752;49.560;8.708;2023-04-08T14:36:07;3.53;;;3.20;;
28551;SDS011;15752;49.560;8.708;2023-04-08T14:38:36;3.57;;;3.27;;
28551;SDS011;15752;49.560;8.708;2023-04-08T14:41:05;4.27;;;3.63;;
28551;SDS011;15752;49.560;8.708;2023-04-08T14:43:34;3.93;;;3.53;;
28551;SDS011;15752;49.560;8.708;2023-04-08T14:46:02;4.03;;;2.93;;
28551;SDS011;15752;49.560;8.708;2023-04-08T14:48:32;4.90;;;3.17;;
28551;SDS011;15752;49.560;8.708;2023-04-08T14:51:00;4.53;;;3.30;;
28551;SDS011;15752;49.560;8.708;2023-04-08T14:53:29;4.97;;;3.47;;
28551;SDS011;15752;49.560;8.708;2023-04-08T14:55:57;4.20;;;3.07;;
28551;SDS011;15752;49.560;8.708;2023-04-08T14:58:26;4.03;;;3.53;;
28551;SDS011;15752;49.560;8.708;2023-04-08T15:00:54;7.23;;;3.60;;
28551;SDS011;15752;49.560;8.708;2023-04-08T15:03:23;4.53;;;3.60;;
28551;SDS011;15752;49.560;8.708;2023-04-08T15:05:56;5.23;;;3.77;;
28551;SDS011;15752;49.560;8.708;2023-04-08T15:08:26;4.37;;;3.90;;